createdAt,value
2022-08-27T00:00:48.149Z,14.89
2022-08-27T00:03:15.550Z,14.82
2022-08-27T00:05:43.370Z,14.70
2022-08-27T00:08:12.711Z,14.59
2022-08-27T00:10:40.771Z,14.44
2022-08-27T00:13:08.128Z,14.49
2022-08-27T00:15:35.112Z,14.50
2022-08-27T00:18:01.936Z,14.54
2022-08-27T00:20:28.710Z,14.52
2022-08-27T00:22:55.874Z,14.47
2022-08-27T00:25:23.392Z,14.51
2022-08-27T00:27:50.835Z,14.58
2022-08-27T00:30:21.050Z,14.67
2022-08-27T00:32:48.348Z,14.71
2022-08-27T00:35:16.765Z,14.76
2022-08-27T00:37:44.602Z,14.79
2022-08-27T00:40:16.677Z,14.80
2022-08-27T00:42:45.943Z,14.85
2022-08-27T00:45:15.461Z,14.90
2022-08-27T00:47:50.420Z,14.94
2022-08-27T00:50:23.387Z,14.94
2022-08-27T00:52:56.739Z,14.92
2022-08-27T00:55:33.285Z,14.96
2022-08-27T00:58:09.381Z,14.96
2022-08-27T01:00:37.321Z,14.91
2022-08-27T01:03:04.863Z,14.82
2022-08-27T01:05:33.751Z,14.76
2022-08-27T01:08:06.711Z,14.71
2022-08-27T01:10:34.289Z,14.66
2022-08-27T01:13:01.574Z,14.61
2022-08-27T01:15:30.543Z,14.61
2022-08-27T01:17:58.633Z,14.61
2022-08-27T01:20:35.677Z,14.63
2022-08-27T01:23:14.472Z,14.86
2022-08-27T01:25:43.588Z,15.01
2022-08-27T01:28:12.452Z,15.13
2022-08-27T01:30:40.257Z,15.29
2022-08-27T01:33:14.604Z,15.41
2022-08-27T01:35:43.861Z,15.50
2022-08-27T01:38:29.933Z,15.57
2022-08-27T01:40:57.845Z,15.48
2022-08-27T01:43:24.992Z,15.53
2022-08-27T01:45:52.223Z,15.53
2022-08-27T01:48:21.638Z,15.56
2022-08-27T01:50:49.697Z,15.53
2022-08-27T01:53:23.090Z,15.48
2022-08-27T01:55:51.704Z,15.36
2022-08-27T01:58:21.813Z,15.28
2022-08-27T02:00:54.196Z,15.27
2022-08-27T02:03:24.071Z,15.23
2022-08-27T02:05:52.073Z,15.17
2022-08-27T02:08:19.558Z,15.12
2022-08-27T02:10:48.364Z,15.05
2022-08-27T02:13:15.556Z,15.05
2022-08-27T02:15:43.815Z,15.06
2022-08-27T02:18:12.204Z,15.16
2022-08-27T02:20:39.202Z,15.28
2022-08-27T02:23:06.520Z,15.41
2022-08-27T02:25:34.086Z,15.51
2022-08-27T02:28:01.871Z,15.58
2022-08-27T02:30:32.052Z,15.63
2022-08-27T02:33:01.038Z,15.68
2022-08-27T02:35:30.262Z,15.63
2022-08-27T02:37:57.436Z,15.60
2022-08-27T02:40:25.561Z,15.62
2022-08-27T02:42:52.431Z,15.63
2022-08-27T02:45:20.796Z,15.67
2022-08-27T02:47:48.585Z,15.74
2022-08-27T02:50:16.417Z,15.78
2022-08-27T02:52:46.467Z,15.80
2022-08-27T02:55:17.119Z,15.84
2022-08-27T02:57:44.794Z,15.85
2022-08-27T03:00:16.666Z,15.87
2022-08-27T03:02:43.592Z,15.86
2022-08-27T03:05:12.728Z,15.78
2022-08-27T03:07:40.314Z,15.77
2022-08-27T03:10:08.832Z,15.84
2022-08-27T03:12:36.445Z,15.80
2022-08-27T03:15:08.514Z,15.66
2022-08-27T03:17:54.499Z,15.50
2022-08-27T03:20:22.771Z,15.21
2022-08-27T03:22:49.722Z,14.94
2022-08-27T03:25:16.898Z,14.73
2022-08-27T03:27:43.712Z,14.53
2022-08-27T03:30:15.901Z,14.34
2022-08-27T03:32:43.398Z,14.22
2022-08-27T03:35:10.493Z,14.10
2022-08-27T03:37:37.303Z,14.05
2022-08-27T03:40:06.063Z,14.03
2022-08-27T03:42:32.831Z,13.99
2022-08-27T03:44:59.549Z,14.25
2022-08-27T03:47:26.608Z,14.41
2022-08-27T03:49:53.671Z,14.46
2022-08-27T03:52:20.924Z,14.45
2022-08-27T03:54:48.816Z,14.51
2022-08-27T03:57:15.545Z,14.54
2022-08-27T03:59:42.317Z,14.54
2022-08-27T04:02:09.459Z,14.62
2022-08-27T04:04:36.810Z,14.77
2022-08-27T04:07:03.806Z,14.84
2022-08-27T04:09:30.590Z,14.79
2022-08-27T04:11:57.569Z,14.75
2022-08-27T04:14:26.915Z,14.66
2022-08-27T04:16:57.722Z,14.56
2022-08-27T04:19:27.998Z,14.43
2022-08-27T04:22:03.127Z,14.22
2022-08-27T04:24:32.277Z,13.97
2022-08-27T04:27:00.834Z,13.76
2022-08-27T04:29:28.545Z,13.75
2022-08-27T04:31:56.688Z,13.87
2022-08-27T04:34:24.125Z,14.07
2022-08-27T04:36:51.284Z,14.35
2022-08-27T04:39:20.575Z,14.50
2022-08-27T04:41:50.502Z,14.59
2022-08-27T04:44:17.276Z,14.64
2022-08-27T04:46:46.935Z,14.69
2022-08-27T04:49:17.383Z,14.74
2022-08-27T04:51:44.201Z,14.77
2022-08-27T04:54:11.246Z,14.82
2022-08-27T04:56:39.198Z,14.93
2022-08-27T04:59:08.237Z,15.02
2022-08-27T05:01:36.489Z,15.16
2022-08-27T05:04:04.021Z,15.26
2022-08-27T05:06:31.321Z,15.27
2022-08-27T05:08:58.216Z,15.41
2022-08-27T05:11:29.702Z,15.51
2022-08-27T05:13:56.579Z,15.46
2022-08-27T05:16:23.641Z,15.33
2022-08-27T05:18:52.219Z,15.15
2022-08-27T05:21:25.485Z,14.99
2022-08-27T05:23:54.354Z,14.85
2022-08-27T05:26:21.918Z,14.73
2022-08-27T05:28:48.704Z,14.68
2022-08-27T05:31:17.034Z,14.73
2022-08-27T05:33:44.665Z,14.92
2022-08-27T05:36:18.465Z,15.22
2022-08-27T05:38:45.268Z,15.66
2022-08-27T05:41:17.945Z,16.16
2022-08-27T05:43:49.873Z,16.70
2022-08-27T05:46:20.460Z,16.91
2022-08-27T05:48:48.564Z,17.04
2022-08-27T05:51:25.591Z,17.12
2022-08-27T05:54:05.611Z,17.16
2022-08-27T05:56:38.054Z,17.22
2022-08-27T05:59:24.346Z,17.32
2022-08-27T06:01:54.277Z,17.40
2022-08-27T06:04:24.040Z,17.41
2022-08-27T06:06:51.912Z,17.42
2022-08-27T06:09:21.473Z,17.48
2022-08-27T06:11:49.098Z,17.55
2022-08-27T06:14:15.990Z,17.50
2022-08-27T06:16:42.987Z,17.62
2022-08-27T06:19:12.231Z,17.52
2022-08-27T06:21:40.696Z,17.59
2022-08-27T06:24:08.558Z,17.85
2022-08-27T06:26:36.398Z,17.99
2022-08-27T06:29:07.588Z,17.99
2022-08-27T06:31:38.744Z,17.71
2022-08-27T06:34:09.705Z,17.38
2022-08-27T06:36:40.011Z,17.06
2022-08-27T06:39:08.319Z,16.75
2022-08-27T06:41:35.323Z,16.65
2022-08-27T06:44:11.781Z,16.73
2022-08-27T06:46:38.976Z,16.81
2022-08-27T06:49:06.708Z,16.83
2022-08-27T06:51:35.587Z,16.65
2022-08-27T06:54:06.434Z,16.53
2022-08-27T06:56:33.505Z,16.42
2022-08-27T06:59:02.845Z,16.41
2022-08-27T07:01:33.152Z,16.69
2022-08-27T07:04:02.133Z,16.59
2022-08-27T07:06:31.701Z,16.57
2022-08-27T07:08:59.301Z,16.59
2022-08-27T07:11:27.049Z,16.70
2022-08-27T07:13:53.903Z,16.81
2022-08-27T07:16:24.065Z,17.07
2022-08-27T07:18:53.216Z,17.44
2022-08-27T07:21:21.069Z,17.68
2022-08-27T07:23:50.041Z,17.73
2022-08-27T07:26:17.897Z,17.81
2022-08-27T07:28:46.583Z,18.09
2022-08-27T07:31:17.109Z,18.53
2022-08-27T07:33:51.420Z,18.84
2022-08-27T07:36:21.047Z,18.93
2022-08-27T07:38:56.725Z,18.92
2022-08-27T07:41:30.977Z,18.91
2022-08-27T07:44:18.332Z,18.79
2022-08-27T07:46:48.341Z,18.84
2022-08-27T07:49:17.379Z,18.80
2022-08-27T07:51:44.867Z,18.99
2022-08-27T07:54:11.876Z,19.06
2022-08-27T07:56:38.753Z,19.24
2022-08-27T07:59:05.518Z,19.19
2022-08-27T08:01:32.788Z,19.12
2022-08-27T08:04:00.183Z,19.03
2022-08-27T08:06:27.085Z,19.08
2022-08-27T08:08:53.927Z,19.27
2022-08-27T08:11:20.982Z,19.23
2022-08-27T08:13:48.301Z,19.23
2022-08-27T08:16:15.685Z,19.33
2022-08-27T08:18:42.724Z,19.47
2022-08-27T08:21:12.675Z,19.61
2022-08-27T08:23:40.660Z,19.62
2022-08-27T08:26:08.428Z,19.82
2022-08-27T08:28:36.694Z,20.14
2022-08-27T08:31:04.283Z,20.18
2022-08-27T08:33:31.724Z,19.98
2022-08-27T08:36:14.941Z,19.54
2022-08-27T08:38:42.547Z,19.50
2022-08-27T08:41:28.016Z,19.32
2022-08-27T08:44:03.473Z,19.03
2022-08-27T08:46:40.035Z,18.90
2022-08-27T08:49:52.942Z,18.94
2022-08-27T08:52:34.806Z,20.75
2022-08-27T08:55:26.300Z,22.09
2022-08-27T08:58:19.525Z,23.28
2022-08-27T09:00:57.674Z,23.98
2022-08-27T09:03:25.710Z,24.61
2022-08-27T09:06:05.528Z,24.86
2022-08-27T09:08:40.655Z,24.14
2022-08-27T09:11:26.417Z,22.97
2022-08-27T09:13:59.792Z,21.61
2022-08-27T09:16:26.977Z,21.66
2022-08-27T09:18:54.319Z,21.13
2022-08-27T09:21:51.711Z,20.71
2022-08-27T09:24:23.072Z,21.31
2022-08-27T09:26:50.454Z,20.94
2022-08-27T09:29:20.990Z,20.87
2022-08-27T09:31:57.313Z,20.91
2022-08-27T09:34:26.413Z,22.04
2022-08-27T09:37:00.887Z,23.42
2022-08-27T09:40:01.862Z,24.53
2022-08-27T09:42:36.100Z,24.51
2022-08-27T09:45:08.526Z,23.76
2022-08-27T09:47:44.766Z,23.97
2022-08-27T09:50:11.741Z,23.06
2022-08-27T09:52:56.838Z,22.17
2022-08-27T09:55:30.762Z,21.64
2022-08-27T09:57:58.437Z,21.35
2022-08-27T10:00:40.425Z,20.96
2022-08-27T10:03:09.176Z,20.79
2022-08-27T10:05:47.489Z,20.39
2022-08-27T10:08:30.190Z,20.16
2022-08-27T10:11:04.484Z,21.43
2022-08-27T10:13:37.948Z,23.05
2022-08-27T10:16:20.111Z,24.50
2022-08-27T10:19:16.805Z,23.49
2022-08-27T10:21:54.318Z,23.14
2022-08-27T10:24:21.125Z,22.90
2022-08-27T10:27:01.912Z,22.14
2022-08-27T10:29:47.031Z,22.34
2022-08-27T10:32:41.732Z,21.92
2022-08-27T10:35:19.813Z,21.73
2022-08-27T10:38:07.691Z,22.13
2022-08-27T10:40:42.623Z,23.16
2022-08-27T10:43:27.469Z,24.65
2022-08-27T10:46:11.019Z,25.62
2022-08-27T10:48:48.970Z,25.34
2022-08-27T10:51:31.142Z,25.32
2022-08-27T10:54:07.922Z,26.00
2022-08-27T10:57:26.239Z,25.04
2022-08-27T11:00:12.280Z,24.75
2022-08-27T11:02:48.132Z,25.76
2022-08-27T11:05:24.525Z,24.85
2022-08-27T11:08:22.064Z,23.86
2022-08-27T11:10:54.285Z,23.77
2022-08-27T11:13:38.588Z,23.01
2022-08-27T11:16:29.157Z,22.96
2022-08-27T11:19:20.927Z,23.23
2022-08-27T11:22:01.321Z,22.40
2022-08-27T11:24:54.246Z,22.56
2022-08-27T11:27:24.043Z,23.86
2022-08-27T11:30:02.042Z,24.59
2022-08-27T11:32:43.914Z,23.89
2022-08-27T11:35:30.928Z,23.12
2022-08-27T11:38:27.644Z,22.63
2022-08-27T11:41:11.040Z,22.40
2022-08-27T11:43:37.954Z,22.50
2022-08-27T11:46:08.702Z,22.52
2022-08-27T11:48:41.751Z,22.84
2022-08-27T11:51:35.825Z,23.28
2022-08-27T11:54:07.189Z,23.84
2022-08-27T11:56:37.010Z,24.40
2022-08-27T11:59:22.972Z,23.67
2022-08-27T12:01:52.634Z,22.92
2022-08-27T12:04:30.367Z,23.85
2022-08-27T12:07:06.360Z,25.52
2022-08-27T12:10:02.693Z,24.84
2022-08-27T12:12:47.507Z,25.15
2022-08-27T12:15:18.816Z,26.05
2022-08-27T12:18:00.277Z,25.44
2022-08-27T12:20:50.181Z,24.98
2022-08-27T12:23:41.073Z,27.02
2022-08-27T12:26:31.791Z,28.88
2022-08-27T12:29:17.453Z,29.20
2022-08-27T12:31:48.270Z,30.48
2022-08-27T12:34:19.363Z,28.72
2022-08-27T12:36:53.486Z,25.84
2022-08-27T12:39:27.148Z,26.84
2022-08-27T12:41:55.787Z,27.35
2022-08-27T12:44:33.040Z,26.79
2022-08-27T12:47:11.952Z,26.02
2022-08-27T12:50:01.165Z,25.78
2022-08-27T12:52:46.628Z,25.06
2022-08-27T12:55:31.046Z,25.97
2022-08-27T12:58:20.095Z,25.66
2022-08-27T13:01:32.290Z,25.78
2022-08-27T13:04:01.127Z,27.74
2022-08-27T13:06:30.545Z,25.94
2022-08-27T13:09:00.045Z,24.96
2022-08-27T13:11:44.082Z,24.58
2022-08-27T13:14:19.919Z,28.25
2022-08-27T13:16:51.602Z,29.43
2022-08-27T13:19:32.410Z,26.45
2022-08-27T13:22:01.461Z,26.73
2022-08-27T13:24:32.693Z,25.11
2022-08-27T13:27:02.386Z,25.33
2022-08-27T13:29:29.776Z,28.06
2022-08-27T13:31:56.742Z,29.27
2022-08-27T13:34:27.600Z,30.49
2022-08-27T13:37:06.377Z,32.56
2022-08-27T13:39:35.744Z,30.39
2022-08-27T13:42:05.799Z,28.02
2022-08-27T13:44:36.761Z,26.80
2022-08-27T13:47:05.379Z,25.63
2022-08-27T13:49:40.044Z,23.83
2022-08-27T13:52:29.256Z,23.05
2022-08-27T13:55:09.389Z,23.75
2022-08-27T13:57:43.884Z,25.26
2022-08-27T14:00:17.608Z,25.38
2022-08-27T14:02:55.375Z,24.40
2022-08-27T14:05:23.130Z,25.18
2022-08-27T14:07:53.402Z,23.65
2022-08-27T14:10:37.636Z,25.61
2022-08-27T14:13:12.913Z,24.24
2022-08-27T14:15:45.646Z,23.24
2022-08-27T14:18:57.303Z,24.59
2022-08-27T14:21:20.369Z,23.39
2022-08-27T14:23:47.579Z,26.84
2022-08-27T14:26:16.420Z,28.80
2022-08-27T14:28:43.469Z,27.02
2022-08-27T14:31:11.738Z,25.48
2022-08-27T14:33:38.734Z,23.17
2022-08-27T14:36:06.712Z,21.77
2022-08-27T14:38:35.908Z,21.68
2022-08-27T14:41:03.497Z,21.43
2022-08-27T14:43:34.690Z,21.55
2022-08-27T14:46:03.532Z,21.81
2022-08-27T14:48:33.647Z,21.55
2022-08-27T14:51:07.656Z,22.29
2022-08-27T14:53:34.452Z,22.89
2022-08-27T14:56:01.824Z,21.78
2022-08-27T14:58:29.525Z,20.76
2022-08-27T15:00:57.734Z,20.07
2022-08-27T15:03:25.567Z,19.87
2022-08-27T15:05:54.935Z,19.84
2022-08-27T15:08:27.440Z,19.80
2022-08-27T15:10:57.184Z,19.82
2022-08-27T15:13:24.298Z,19.73
2022-08-27T15:15:52.360Z,19.92
2022-08-27T15:18:19.722Z,23.79
2022-08-27T15:20:46.965Z,24.82
2022-08-27T15:23:15.817Z,23.20
2022-08-27T15:25:45.711Z,25.22
2022-08-27T15:28:12.803Z,27.09
2022-08-27T15:30:39.744Z,26.89
2022-08-27T15:33:06.807Z,24.14
2022-08-27T15:35:34.400Z,21.80
2022-08-27T15:38:01.710Z,20.50
2022-08-27T15:40:32.068Z,20.97
2022-08-27T15:43:02.724Z,21.51
2022-08-27T15:45:31.487Z,21.20
2022-08-27T15:47:59.326Z,20.48
2022-08-27T15:50:28.605Z,20.16
2022-08-27T15:52:59.044Z,20.10
2022-08-27T15:55:29.876Z,20.18
2022-08-27T15:57:57.483Z,19.90
2022-08-27T16:00:25.035Z,19.69
2022-08-27T16:02:53.176Z,19.31
2022-08-27T16:05:22.296Z,18.88
2022-08-27T16:07:49.162Z,18.71
2022-08-27T16:10:16.714Z,18.74
2022-08-27T16:12:44.498Z,18.81
2022-08-27T16:15:11.747Z,19.03
2022-08-27T16:17:39.279Z,19.23
2022-08-27T16:20:09.117Z,19.54
2022-08-27T16:22:36.244Z,19.70
2022-08-27T16:25:04.452Z,19.70
2022-08-27T16:27:31.387Z,19.47
2022-08-27T16:29:58.212Z,19.03
2022-08-27T16:32:25.837Z,18.72
2022-08-27T16:34:55.609Z,18.62
2022-08-27T16:37:24.549Z,18.74
2022-08-27T16:39:51.409Z,18.79
2022-08-27T16:42:18.377Z,18.73
2022-08-27T16:44:45.402Z,18.69
2022-08-27T16:47:12.364Z,18.71
2022-08-27T16:49:57.584Z,18.48
2022-08-27T16:52:24.325Z,18.17
2022-08-27T16:54:52.255Z,17.77
2022-08-27T16:57:19.214Z,17.59
2022-08-27T16:59:46.018Z,17.39
2022-08-27T17:02:34.868Z,17.27
2022-08-27T17:05:17.731Z,17.20
2022-08-27T17:07:49.378Z,17.58
2022-08-27T17:10:18.323Z,17.88
2022-08-27T17:12:47.129Z,18.12
2022-08-27T17:15:18.653Z,18.07
2022-08-27T17:17:46.019Z,18.06
2022-08-27T17:20:15.190Z,18.04
2022-08-27T17:22:42.304Z,18.05
2022-08-27T17:25:09.957Z,18.14
2022-08-27T17:27:36.800Z,18.28
2022-08-27T17:30:04.574Z,18.20
2022-08-27T17:32:36.912Z,18.12
2022-08-27T17:35:06.574Z,17.99
2022-08-27T17:37:33.733Z,17.76
2022-08-27T17:40:01.063Z,17.43
2022-08-27T17:42:29.618Z,17.06
2022-08-27T17:44:57.021Z,16.86
2022-08-27T17:47:24.996Z,16.61
2022-08-27T17:49:52.707Z,16.52
2022-08-27T17:52:20.202Z,16.41
2022-08-27T17:54:51.016Z,16.35
2022-08-27T17:57:22.384Z,16.36
2022-08-27T17:59:49.985Z,16.40
2022-08-27T18:02:50.815Z,16.46
2022-08-27T18:05:19.893Z,16.65
2022-08-27T18:07:47.373Z,16.64
2022-08-27T18:10:17.628Z,16.67
2022-08-27T18:12:46.024Z,16.64
2022-08-27T18:15:20.511Z,16.61
2022-08-27T18:17:48.496Z,16.58
2022-08-27T18:20:21.843Z,16.58
2022-08-27T18:22:49.191Z,16.52
2022-08-27T18:25:18.004Z,16.48
2022-08-27T18:27:49.001Z,16.35
2022-08-27T18:30:16.369Z,16.21
2022-08-27T18:32:43.257Z,16.10
2022-08-27T18:35:18.029Z,15.93
2022-08-27T18:37:45.007Z,15.89
2022-08-27T18:40:13.308Z,15.74
2022-08-27T18:42:41.131Z,15.64
2022-08-27T18:45:22.954Z,15.75
2022-08-27T18:47:51.660Z,15.86
2022-08-27T18:50:19.488Z,15.91
2022-08-27T18:52:48.397Z,15.97
2022-08-27T18:55:18.716Z,16.03
2022-08-27T18:57:45.702Z,16.08
2022-08-27T19:00:14.703Z,16.01
2022-08-27T19:02:42.845Z,15.90
2022-08-27T19:05:10.767Z,15.81
2022-08-27T19:07:37.906Z,15.59
2022-08-27T19:10:06.569Z,15.29
2022-08-27T19:12:33.354Z,15.21
2022-08-27T19:15:04.143Z,15.10
2022-08-27T19:17:34.844Z,15.00
2022-08-27T19:20:02.369Z,14.90
2022-08-27T19:22:31.164Z,14.75
2022-08-27T19:24:58.763Z,14.78
2022-08-27T19:27:29.293Z,15.03
2022-08-27T19:29:56.542Z,15.32
2022-08-27T19:32:23.396Z,15.39
2022-08-27T19:34:50.337Z,15.36
2022-08-27T19:37:24.838Z,15.22
2022-08-27T19:39:52.853Z,15.05
2022-08-27T19:42:19.862Z,15.00
2022-08-27T19:44:47.423Z,14.89
2022-08-27T19:47:18.911Z,14.83
2022-08-27T19:49:49.739Z,14.80
2022-08-27T19:52:16.626Z,14.81
2022-08-27T19:55:09.840Z,14.73
2022-08-27T19:57:30.230Z,14.73
2022-08-27T19:59:57.079Z,14.78
2022-08-27T20:02:24.364Z,14.75
2022-08-27T20:05:14.214Z,14.84
2022-08-27T20:07:38.072Z,14.96
2022-08-27T20:10:08.323Z,15.05
2022-08-27T20:12:36.578Z,15.11
2022-08-27T20:15:05.641Z,15.17
2022-08-27T20:17:32.772Z,15.24
2022-08-27T20:19:59.892Z,15.32
2022-08-27T20:22:26.958Z,15.47
2022-08-27T20:24:53.833Z,15.57
2022-08-27T20:27:20.713Z,15.65
2022-08-27T20:29:47.727Z,15.65
2022-08-27T20:32:14.876Z,15.63
2022-08-27T20:34:41.730Z,15.60
2022-08-27T20:37:08.667Z,15.57
2022-08-27T20:39:36.102Z,15.58
2022-08-27T20:42:03.404Z,15.56
2022-08-27T20:44:31.530Z,15.57
2022-08-27T20:47:00.530Z,15.33
2022-08-27T20:49:28.002Z,15.16
2022-08-27T20:52:02.873Z,15.10
2022-08-27T20:54:32.099Z,14.97
2022-08-27T20:56:59.091Z,14.91
2022-08-27T20:59:44.929Z,14.94
2022-08-27T21:02:13.865Z,15.12
2022-08-27T21:04:45.941Z,15.25
2022-08-27T21:07:13.906Z,15.30
2022-08-27T21:09:55.678Z,15.27
2022-08-27T21:12:28.905Z,15.31
2022-08-27T21:14:56.647Z,15.44
2022-08-27T21:17:27.093Z,15.62
2022-08-27T21:19:54.309Z,15.71
2022-08-27T21:22:22.638Z,15.78
2022-08-27T21:24:49.880Z,15.82
2022-08-27T21:27:18.519Z,15.75
2022-08-27T21:29:45.761Z,15.57
2022-08-27T21:32:14.283Z,15.30
2022-08-27T21:34:41.978Z,15.01
2022-08-27T21:37:11.068Z,14.78
2022-08-27T21:39:38.772Z,14.52
2022-08-27T21:42:05.868Z,14.39
2022-08-27T21:44:32.704Z,14.38
2022-08-27T21:47:00.681Z,14.61
2022-08-27T21:49:28.068Z,14.79
2022-08-27T21:51:54.869Z,14.98
2022-08-27T21:54:26.021Z,15.09
2022-08-27T21:56:53.017Z,15.31
2022-08-27T21:59:20.051Z,15.42
2022-08-27T22:01:47.010Z,15.44
2022-08-27T22:04:14.171Z,15.48
2022-08-27T22:06:40.958Z,15.48
2022-08-27T22:09:07.885Z,15.41
2022-08-27T22:11:34.921Z,15.21
2022-08-27T22:14:01.707Z,14.98
2022-08-27T22:16:29.254Z,14.73
2022-08-27T22:18:58.950Z,14.55
2022-08-27T22:21:26.788Z,14.44
2022-08-27T22:23:53.615Z,14.33
2022-08-27T22:26:21.079Z,14.20
2022-08-27T22:28:48.712Z,14.06
2022-08-27T22:31:15.763Z,13.91
2022-08-27T22:33:42.927Z,13.83
2022-08-27T22:36:10.044Z,13.85
2022-08-27T22:38:37.040Z,13.87
2022-08-27T22:41:05.994Z,13.83
2022-08-27T22:43:34.190Z,13.88
2022-08-27T22:46:01.178Z,14.01
2022-08-27T22:48:27.970Z,14.17
2022-08-27T22:50:54.778Z,14.41
2022-08-27T22:53:21.568Z,14.54
2022-08-27T22:55:50.345Z,14.50
2022-08-27T22:58:18.118Z,14.45
2022-08-27T23:00:51.922Z,14.29
2022-08-27T23:03:20.249Z,14.22
2022-08-27T23:05:47.717Z,14.15
2022-08-27T23:08:15.321Z,14.20
2022-08-27T23:10:43.373Z,14.27
2022-08-27T23:13:11.393Z,14.31
2022-08-27T23:15:39.088Z,14.31
2022-08-27T23:18:06.064Z,14.28
2022-08-27T23:20:33.076Z,14.26
2022-08-27T23:23:00.025Z,14.26
2022-08-27T23:25:45.689Z,14.34
2022-08-27T23:28:15.156Z,14.27
2022-08-27T23:30:44.266Z,14.13
2022-08-27T23:33:11.973Z,14.11
2022-08-27T23:35:38.920Z,14.17
2022-08-27T23:38:05.818Z,14.23
2022-08-27T23:40:32.657Z,14.29
2022-08-27T23:42:59.559Z,14.31
2022-08-27T23:45:26.967Z,14.27
2022-08-27T23:47:53.885Z,14.28
2022-08-27T23:50:24.679Z,14.29
2022-08-27T23:53:01.764Z,14.10
2022-08-27T23:55:29.112Z,13.92
2022-08-27T23:57:57.541Z,13.88
